Morton S Bouchard Jr — WSE9678 — position and weather

sailwx.info

Track history (hours):
 
Tides and Currents Weather Stations Pressure Air Temp Water Temp Dewpoint Dewpoint Depression Visibility Wind Speed Wind Dir Waves Ship Positions

Morton S Bouchard Jr

Owner: BOUCHARD TRANSPORTATION CO INC, MELVILLE, NY. More information available from US FCC via Universal Licensing System and Coast Guard Vessel Documentation Center.

Last reported at 2016-Dec-10 03:33 UTC. Time now 2016-Dec-10 09:02 UTC.
Position N 40°39' W 074°10'.

Length 33 m; draft 5 m.

Type: Tug. MMSI: 367006550.

Date/timePositionNaut miles runAvg speedWind from/ knotsBaromVisibWave heightAir tempDewpointWater temp
2016-Dec-10 03:33N 40°39' W 074°10'3 3.4
2016-Dec-10 02:33N 40°39' W 074°05'1 0.6
2016-Dec-10 01:32N 40°39' W 074°06'0 0.2
2016-Dec-10 00:32N 40°39' W 074°06'1 0.7
2016-Dec-09 23:33N 40°39' W 074°07'0 0.4
2016-Dec-09 22:33N 40°39' W 074°07'0 0.0
2016-Dec-09 21:33N 40°39' W 074°07'0 0.0
2016-Dec-09 20:33N 40°39' W 074°07'0 0.0
2016-Dec-09 19:33N 40°39' W 074°07'0 0.0
2016-Dec-09 18:33N 40°39' W 074°07'0 0.0
2016-Dec-09 17:33N 40°39' W 074°07'0 0.0
2016-Dec-09 16:33N 40°39' W 074°07'0 0.0
2016-Dec-09 15:33N 40°39' W 074°07'0 0.0
2016-Dec-09 14:33N 40°39' W 074°07'1 1.0
2016-Dec-09 13:32N 40°39' W 074°06'3 2.8
2016-Dec-09 12:33N 40°40' W 074°02'1 0.6
2016-Dec-09 11:32N 40°40' W 074°02'0 0.0
2016-Dec-09 10:32N 40°40' W 074°02'0 0.0
2016-Dec-09 09:32N 40°40' W 074°02'0 0.0
2016-Dec-09 08:32N 40°40' W 074°02'0 0.0
2016-Dec-09 07:32N 40°40' W 074°02'0 0.0
2016-Dec-09 06:32N 40°40' W 074°02'0 0.0
2016-Dec-09 05:32N 40°40' W 074°02'0 0.0
2016-Dec-09 04:32N 40°40' W 074°02'0 0.0
2016-Dec-09 03:32N 40°40' W 074°02'0 0.0
2016-Dec-09 02:32N 40°40' W 074°02'0 0.0
2016-Dec-09 01:32N 40°40' W 074°02'0 0.0
2016-Dec-09 00:32N 40°40' W 074°02'0 0.0
2016-Dec-08 23:32N 40°40' W 074°02'0 0.0
2016-Dec-08 22:32N 40°40' W 074°02'0 0.5
2016-Dec-08 21:33N 40°40' W 074°02'8 7.0
2016-Dec-08 20:28N 40°47' W 073°59'0 0.0
2016-Dec-08 19:31N 40°47' W 073°59'0 0.0
2016-Dec-08 18:31N 40°47' W 073°59'0 0.1
2016-Dec-08 17:31N 40°47' W 073°59'0 0.0
2016-Dec-08 16:31N 40°47' W 073°59'0 0.0
2016-Dec-08 15:31N 40°47' W 073°59'0 0.0
2016-Dec-08 14:31N 40°47' W 073°59'0 0.0
2016-Dec-08 13:33N 40°47' W 073°59'0 0.0
2016-Dec-08 12:33N 40°47' W 073°59'0 0.0
2016-Dec-08 11:33N 40°47' W 073°59'0 0.1
2016-Dec-08 10:33N 40°47' W 073°59'0 0.0
2016-Dec-08 09:33N 40°47' W 073°59'0 0.0
2016-Dec-08 08:33N 40°48' W 073°59'0 0.0
2016-Dec-08 07:33N 40°48' W 073°59'0 0.0
2016-Dec-08 06:33N 40°47' W 073°59'0 0.1
2016-Dec-08 05:33N 40°47' W 073°59'0 0.1
2016-Dec-08 04:33N 40°47' W 073°59'0 0.0
2016-Dec-08 03:33N 40°47' W 073°59'0 0.0
2016-Dec-08 02:33N 40°47' W 073°59'0 0.0
2016-Dec-08 01:33N 40°47' W 073°59'0 0.1
2016-Dec-08 00:33N 40°48' W 073°59'0 0.0
2016-Dec-07 23:33N 40°48' W 073°59'0 0.0
2016-Dec-07 22:33N 40°48' W 073°59'0 0.1
2016-Dec-07 21:33N 40°48' W 073°59'0 0.1
2016-Dec-07 20:33N 40°48' W 073°59'0 0.0
2016-Dec-07 19:33N 40°48' W 073°59'0 0.0
2016-Dec-07 18:33N 40°48' W 073°59'5 4.6
2016-Dec-07 17:33N 40°43' W 074°01'5 5.4
2016-Dec-07 16:33N 40°38' W 074°04'5 4.8
2016-Dec-07 15:34N 40°42' W 074°00'5 4.8
2016-Dec-07 14:33N 40°46' W 073°57'6 5.9
2016-Dec-07 13:33N 40°48' W 073°49'2 0.1
2016-Dec-06 14:32N 40°49' W 073°47'0 0.0
2016-Dec-06 13:31N 40°49' W 073°46'0 0.1
2016-Dec-06 11:32N 40°49' W 073°47'0 0.0
2016-Dec-06 05:29N 40°49' W 073°46'0 0.1
2016-Dec-06 04:33N 40°49' W 073°46'0 0.0
2016-Dec-06 03:33N 40°49' W 073°46'0 0.0
2016-Dec-06 02:33N 40°49' W 073°46'0 0.0
2016-Dec-06 01:33N 40°49' W 073°46'0 0.0
2016-Dec-06 00:32N 40°49' W 073°46'0 0.1
2016-Dec-05 23:33N 40°49' W 073°46'0 0.0
2016-Dec-05 22:33N 40°49' W 073°47'0 0.0
2016-Dec-05 21:31N 40°49' W 073°46'0 0.0
2016-Dec-05 20:25N 40°49' W 073°46'0 0.0
2016-Dec-05 19:16N 40°49' W 073°46'0 0.1
2016-Dec-05 18:30N 40°49' W 073°46'0 0.0
2016-Dec-05 17:32N 40°49' W 073°46'2 2.3
2016-Dec-05 16:33N 40°51' W 073°46'2 0.6
2016-Dec-05 13:31N 40°50' W 073°47'7 7.2
2016-Dec-05 12:32N 40°47' W 073°55'5 4.7
2016-Dec-05 11:33N 40°43' W 073°58'7 7.2
2016-Dec-05 10:33N 40°39' W 074°06'0 0.4
2016-Dec-05 09:33N 40°39' W 074°07'1 0.6
2016-Dec-05 08:33N 40°39' W 074°07'0 0.0
2016-Dec-05 07:33N 40°39' W 074°07'0 0.0
2016-Dec-05 06:33N 40°39' W 074°07'0 0.0
2016-Dec-05 05:33N 40°39' W 074°07'0 0.0
2016-Dec-05 04:33N 40°39' W 074°07'0 0.0
2016-Dec-05 03:33N 40°39' W 074°07'5 5.3
2016-Dec-05 02:33N 40°35' W 074°12'1 0.7
2016-Dec-05 01:32N 40°36' W 074°12'0 0.0
2016-Dec-05 00:30N 40°36' W 074°12'3 3.7
2016-Dec-04 23:33N 40°39' W 074°10'3 2.7
2016-Dec-04 22:33N 40°39' W 074°07'3 3.0
2016-Dec-04 21:33N 40°38' W 074°03'0 0.1
2016-Dec-04 20:33N 40°38' W 074°03'1 1.3
2016-Dec-04 19:33N 40°39' W 074°02'6 6.4
2016-Dec-04 18:33N 40°45' W 073°58'7 7.0
2016-Dec-04 17:33N 40°48' W 073°50'8 7.4
2016-Dec-04 16:32N 40°53' W 073°43'4 0.2
2016-Dec-03 21:33N 40°50' W 073°46'1 1.1
2016-Dec-03 20:33N 40°49' W 073°46'0 0.0
2016-Dec-03 19:32N 40°49' W 073°46'0 0.0
2016-Dec-03 18:33N 40°49' W 073°46'0 0.0
2016-Dec-03 17:26N 40°49' W 073°46'0 0.0
2016-Dec-03 16:16N 40°49' W 073°46'0 0.1
2016-Dec-03 15:26N 40°49' W 073°46'0 0.1
2016-Dec-03 14:33N 40°49' W 073°46'0 0.0
2016-Dec-03 13:33N 40°49' W 073°46'0 0.0
2016-Dec-03 12:33N 40°49' W 073°46'3 3.4
2016-Dec-03 11:33N 40°48' W 073°51'6 6.5
2016-Dec-03 10:33N 40°45' W 073°58'6 6.4
2016-Dec-03 09:33N 40°40' W 074°03'7 7.2
2016-Dec-03 08:33N 40°37' W 074°12'1 1.1
2016-Dec-03 07:32N 40°36' W 074°12'0 0.3
2016-Dec-03 06:33N 40°36' W 074°12'0 0.0
2016-Dec-03 05:32N 40°36' W 074°12'0 0.0
2016-Dec-03 04:33N 40°36' W 074°12'0 0.0
2016-Dec-03 03:33N 40°36' W 074°12'0 0.0
2016-Dec-03 02:33N 40°36' W 074°12'0 0.0
2016-Dec-03 01:33N 40°36' W 074°12'0 0.0
2016-Dec-03 00:33N 40°36' W 074°12'0 0.0
2016-Dec-02 23:33N 40°36' W 074°12'0 0.0
2016-Dec-02 22:33N 40°36' W 074°12'0 0.0
2016-Dec-02 21:33N 40°36' W 074°12'0 0.0
2016-Dec-02 20:33N 40°36' W 074°12'3 2.8
2016-Dec-02 19:33N 40°39' W 074°11'6 6.1
2016-Dec-02 18:33N 40°38' W 074°03'5 4.5
2016-Dec-02 17:33N 40°42' W 074°00'8 8.0
2016-Dec-02 16:33N 40°48' W 073°54'6 5.8
2016-Dec-02 15:33N 40°50' W 073°47'2 0.1
2016-Dec-01 09:05N 40°51' W 073°45'3 0.8
2016-Dec-01 05:10N 40°49' W 073°47'1 1.6
2016-Dec-01 04:32N 40°48' W 073°48'7 6.9
2016-Dec-01 03:33N 40°46' W 073°56'8 7.9
2016-Dec-01 02:33N 40°40' W 074°03'3 3.1
2016-Dec-01 01:29N 40°39' W 074°07'1 0.6
2016-Dec-01 00:31N 40°39' W 074°07'0 0.0
2016-Nov-30 23:31N 40°39' W 074°07'0 0.0
2016-Nov-30 22:31N 40°39' W 074°07'0 0.0
2016-Nov-30 21:31N 40°39' W 074°07'0 0.2
2016-Nov-30 20:32N 40°39' W 074°07'0 0.0
2016-Nov-30 19:29N 40°39' W 074°07'0 0.0
2016-Nov-30 18:32N 40°39' W 074°07'0 0.0
2016-Nov-30 17:32N 40°39' W 074°07'0 0.0
2016-Nov-30 16:32N 40°39' W 074°07'0 0.0
2016-Nov-30 15:32N 40°39' W 074°07'0 0.0
2016-Nov-30 14:28N 40°39' W 074°07'0 0.0
2016-Nov-30 13:31N 40°39' W 074°07'0 0.0
2016-Nov-30 12:31N 40°39' W 074°07'0 0.0
2016-Nov-30 11:31N 40°39' W 074°07'0 0.0
2016-Nov-30 10:31N 40°39' W 074°07'0 0.0
2016-Nov-30 09:31N 40°39' W 074°07'0 0.0
2016-Nov-30 08:31N 40°39' W 074°07'0 0.0
2016-Nov-30 07:31N 40°39' W 074°07'0 0.0
2016-Nov-30 06:31N 40°39' W 074°07'0 0.0
2016-Nov-30 05:31N 40°39' W 074°07'0 0.0
2016-Nov-30 04:31N 40°39' W 074°07'  
Track history (hours):
 
Tides and Currents Weather Stations Pressure Air Temp Water Temp Dewpoint Dewpoint Depression Visibility Wind Speed Wind Dir Waves Ship Positions

Morton S Bouchard Jr

Owner: BOUCHARD TRANSPORTATION CO INC, MELVILLE, NY. More information available from US FCC via Universal Licensing System and Coast Guard Vessel Documentation Center.

Last reported at 2016-Dec-10 03:33 UTC. Time now 2016-Dec-10 09:02 UTC.
Position N 40°39' W 074°10'.

Length 33 m; draft 5 m.

Type: Tug. MMSI: 367006550.

Date/timePositionNaut miles runAvg speedWind from/ knotsBaromVisibWave heightAir tempDewpointWater temp
2016-Dec-10 03:33N 40°39' W 074°10'3 3.4
2016-Dec-10 02:33N 40°39' W 074°05'1 0.6
2016-Dec-10 01:32N 40°39' W 074°06'0 0.2
2016-Dec-10 00:32N 40°39' W 074°06'1 0.7
2016-Dec-09 23:33N 40°39' W 074°07'0 0.4
2016-Dec-09 22:33N 40°39' W 074°07'0 0.0
2016-Dec-09 21:33N 40°39' W 074°07'0 0.0
2016-Dec-09 20:33N 40°39' W 074°07'0 0.0
2016-Dec-09 19:33N 40°39' W 074°07'0 0.0
2016-Dec-09 18:33N 40°39' W 074°07'0 0.0
2016-Dec-09 17:33N 40°39' W 074°07'0 0.0
2016-Dec-09 16:33N 40°39' W 074°07'0 0.0
2016-Dec-09 15:33N 40°39' W 074°07'0 0.0
2016-Dec-09 14:33N 40°39' W 074°07'1 1.0
2016-Dec-09 13:32N 40°39' W 074°06'3 2.8
2016-Dec-09 12:33N 40°40' W 074°02'1 0.6
2016-Dec-09 11:32N 40°40' W 074°02'0 0.0
2016-Dec-09 10:32N 40°40' W 074°02'0 0.0
2016-Dec-09 09:32N 40°40' W 074°02'0 0.0
2016-Dec-09 08:32N 40°40' W 074°02'0 0.0
2016-Dec-09 07:32N 40°40' W 074°02'0 0.0
2016-Dec-09 06:32N 40°40' W 074°02'0 0.0
2016-Dec-09 05:32N 40°40' W 074°02'0 0.0
2016-Dec-09 04:32N 40°40' W 074°02'0 0.0
2016-Dec-09 03:32N 40°40' W 074°02'0 0.0
2016-Dec-09 02:32N 40°40' W 074°02'0 0.0
2016-Dec-09 01:32N 40°40' W 074°02'0 0.0
2016-Dec-09 00:32N 40°40' W 074°02'0 0.0
2016-Dec-08 23:32N 40°40' W 074°02'0 0.0
2016-Dec-08 22:32N 40°40' W 074°02'0 0.5
2016-Dec-08 21:33N 40°40' W 074°02'8 7.0
2016-Dec-08 20:28N 40°47' W 073°59'0 0.0
2016-Dec-08 19:31N 40°47' W 073°59'0 0.0
2016-Dec-08 18:31N 40°47' W 073°59'0 0.1
2016-Dec-08 17:31N 40°47' W 073°59'0 0.0
2016-Dec-08 16:31N 40°47' W 073°59'0 0.0
2016-Dec-08 15:31N 40°47' W 073°59'0 0.0
2016-Dec-08 14:31N 40°47' W 073°59'0 0.0
2016-Dec-08 13:33N 40°47' W 073°59'0 0.0
2016-Dec-08 12:33N 40°47' W 073°59'0 0.0
2016-Dec-08 11:33N 40°47' W 073°59'0 0.1
2016-Dec-08 10:33N 40°47' W 073°59'0 0.0
2016-Dec-08 09:33N 40°47' W 073°59'0 0.0
2016-Dec-08 08:33N 40°48' W 073°59'0 0.0
2016-Dec-08 07:33N 40°48' W 073°59'0 0.0
2016-Dec-08 06:33N 40°47' W 073°59'0 0.1
2016-Dec-08 05:33N 40°47' W 073°59'0 0.1
2016-Dec-08 04:33N 40°47' W 073°59'0 0.0
2016-Dec-08 03:33N 40°47' W 073°59'0 0.0
2016-Dec-08 02:33N 40°47' W 073°59'0 0.0
2016-Dec-08 01:33N 40°47' W 073°59'0 0.1
2016-Dec-08 00:33N 40°48' W 073°59'0 0.0
2016-Dec-07 23:33N 40°48' W 073°59'0 0.0
2016-Dec-07 22:33N 40°48' W 073°59'0 0.1
2016-Dec-07 21:33N 40°48' W 073°59'0 0.1
2016-Dec-07 20:33N 40°48' W 073°59'0 0.0
2016-Dec-07 19:33N 40°48' W 073°59'0 0.0
2016-Dec-07 18:33N 40°48' W 073°59'5 4.6
2016-Dec-07 17:33N 40°43' W 074°01'5 5.4
2016-Dec-07 16:33N 40°38' W 074°04'5 4.8
2016-Dec-07 15:34N 40°42' W 074°00'5 4.8
2016-Dec-07 14:33N 40°46' W 073°57'6 5.9
2016-Dec-07 13:33N 40°48' W 073°49'2 0.1
2016-Dec-06 14:32N 40°49' W 073°47'0 0.0
2016-Dec-06 13:31N 40°49' W 073°46'0 0.1
2016-Dec-06 11:32N 40°49' W 073°47'0 0.0
2016-Dec-06 05:29N 40°49' W 073°46'0 0.1
2016-Dec-06 04:33N 40°49' W 073°46'0 0.0
2016-Dec-06 03:33N 40°49' W 073°46'0 0.0
2016-Dec-06 02:33N 40°49' W 073°46'0 0.0
2016-Dec-06 01:33N 40°49' W 073°46'0 0.0
2016-Dec-06 00:32N 40°49' W 073°46'0 0.1
2016-Dec-05 23:33N 40°49' W 073°46'0 0.0
2016-Dec-05 22:33N 40°49' W 073°47'0 0.0
2016-Dec-05 21:31N 40°49' W 073°46'0 0.0
2016-Dec-05 20:25N 40°49' W 073°46'0 0.0
2016-Dec-05 19:16N 40°49' W 073°46'0 0.1
2016-Dec-05 18:30N 40°49' W 073°46'0 0.0
2016-Dec-05 17:32N 40°49' W 073°46'2 2.3
2016-Dec-05 16:33N 40°51' W 073°46'2 0.6
2016-Dec-05 13:31N 40°50' W 073°47'7 7.2
2016-Dec-05 12:32N 40°47' W 073°55'5 4.7
2016-Dec-05 11:33N 40°43' W 073°58'7 7.2
2016-Dec-05 10:33N 40°39' W 074°06'0 0.4
2016-Dec-05 09:33N 40°39' W 074°07'1 0.6
2016-Dec-05 08:33N 40°39' W 074°07'0 0.0
2016-Dec-05 07:33N 40°39' W 074°07'0 0.0
2016-Dec-05 06:33N 40°39' W 074°07'0 0.0
2016-Dec-05 05:33N 40°39' W 074°07'0 0.0
2016-Dec-05 04:33N 40°39' W 074°07'0 0.0
2016-Dec-05 03:33N 40°39' W 074°07'5 5.3
2016-Dec-05 02:33N 40°35' W 074°12'1 0.7
2016-Dec-05 01:32N 40°36' W 074°12'0 0.0
2016-Dec-05 00:30N 40°36' W 074°12'3 3.7
2016-Dec-04 23:33N 40°39' W 074°10'3 2.7
2016-Dec-04 22:33N 40°39' W 074°07'3 3.0
2016-Dec-04 21:33N 40°38' W 074°03'0 0.1
2016-Dec-04 20:33N 40°38' W 074°03'1 1.3
2016-Dec-04 19:33N 40°39' W 074°02'6 6.4
2016-Dec-04 18:33N 40°45' W 073°58'7 7.0
2016-Dec-04 17:33N 40°48' W 073°50'8 7.4
2016-Dec-04 16:32N 40°53' W 073°43'4 0.2
2016-Dec-03 21:33N 40°50' W 073°46'1 1.1
2016-Dec-03 20:33N 40°49' W 073°46'0 0.0
2016-Dec-03 19:32N 40°49' W 073°46'0 0.0
2016-Dec-03 18:33N 40°49' W 073°46'0 0.0
2016-Dec-03 17:26N 40°49' W 073°46'0 0.0
2016-Dec-03 16:16N 40°49' W 073°46'0 0.1
2016-Dec-03 15:26N 40°49' W 073°46'0 0.1
2016-Dec-03 14:33N 40°49' W 073°46'0 0.0
2016-Dec-03 13:33N 40°49' W 073°46'0 0.0
2016-Dec-03 12:33N 40°49' W 073°46'3 3.4
2016-Dec-03 11:33N 40°48' W 073°51'6 6.5
2016-Dec-03 10:33N 40°45' W 073°58'6 6.4
2016-Dec-03 09:33N 40°40' W 074°03'7 7.2
2016-Dec-03 08:33N 40°37' W 074°12'1 1.1
2016-Dec-03 07:32N 40°36' W 074°12'0 0.3
2016-Dec-03 06:33N 40°36' W 074°12'0 0.0
2016-Dec-03 05:32N 40°36' W 074°12'0 0.0
2016-Dec-03 04:33N 40°36' W 074°12'0 0.0
2016-Dec-03 03:33N 40°36' W 074°12'0 0.0
2016-Dec-03 02:33N 40°36' W 074°12'0 0.0
2016-Dec-03 01:33N 40°36' W 074°12'0 0.0
2016-Dec-03 00:33N 40°36' W 074°12'0 0.0
2016-Dec-02 23:33N 40°36' W 074°12'0 0.0
2016-Dec-02 22:33N 40°36' W 074°12'0 0.0
2016-Dec-02 21:33N 40°36' W 074°12'0 0.0
2016-Dec-02 20:33N 40°36' W 074°12'3 2.8
2016-Dec-02 19:33N 40°39' W 074°11'6 6.1
2016-Dec-02 18:33N 40°38' W 074°03'5 4.5
2016-Dec-02 17:33N 40°42' W 074°00'8 8.0
2016-Dec-02 16:33N 40°48' W 073°54'6 5.8
2016-Dec-02 15:33N 40°50' W 073°47'2 0.1
2016-Dec-01 09:05N 40°51' W 073°45'3 0.8
2016-Dec-01 05:10N 40°49' W 073°47'1 1.6
2016-Dec-01 04:32N 40°48' W 073°48'7 6.9
2016-Dec-01 03:33N 40°46' W 073°56'8 7.9
2016-Dec-01 02:33N 40°40' W 074°03'3 3.1
2016-Dec-01 01:29N 40°39' W 074°07'1 0.6
2016-Dec-01 00:31N 40°39' W 074°07'0 0.0
2016-Nov-30 23:31N 40°39' W 074°07'0 0.0
2016-Nov-30 22:31N 40°39' W 074°07'0 0.0
2016-Nov-30 21:31N 40°39' W 074°07'0 0.2
2016-Nov-30 20:32N 40°39' W 074°07'0 0.0
2016-Nov-30 19:29N 40°39' W 074°07'0 0.0
2016-Nov-30 18:32N 40°39' W 074°07'0 0.0
2016-Nov-30 17:32N 40°39' W 074°07'0 0.0
2016-Nov-30 16:32N 40°39' W 074°07'0 0.0
2016-Nov-30 15:32N 40°39' W 074°07'0 0.0
2016-Nov-30 14:28N 40°39' W 074°07'0 0.0
2016-Nov-30 13:31N 40°39' W 074°07'0 0.0
2016-Nov-30 12:31N 40°39' W 074°07'0 0.0
2016-Nov-30 11:31N 40°39' W 074°07'0 0.0
2016-Nov-30 10:31N 40°39' W 074°07'0 0.0
2016-Nov-30 09:31N 40°39' W 074°07'0 0.0
2016-Nov-30 08:31N 40°39' W 074°07'0 0.0
2016-Nov-30 07:31N 40°39' W 074°07'0 0.0
2016-Nov-30 06:31N 40°39' W 074°07'0 0.0
2016-Nov-30 05:31N 40°39' W 074°07'0 0.0
2016-Nov-30 04:31N 40°39' W 074°07'  

Dump ship's entire track history